Forks, WA

2:27 AM PST on December 20, 2014 (GMT -0800)
Quillayute | Change Station
CLOSE
Current Station
Airport
Location: Quillayute,
Elevation: 194 ft
Nearby Weather Stations

Elev 194 ft 47.94 °N, 124.56 °W | Updated 8 minutes ago

Rain
Rain
46 °F
Feels Like 40 °F
N
15
Wind Variable Wind from SE
Gusts 25 mph

Today
High -- | Low -- °F
--% Chance of Precip.
Yesterday
High -- | Low -- °F
Precip. -- in
8:04 AM 4:27 PM
Waning Crescent, 3% visible
Pressure 29.61 in
Visibility 6.0 miles
Clouds Mostly Cloudy 2300 ft
Mostly Cloudy 3000 ft
Overcast 3700 ft
Windchill 40 °F
Dew Point 45 °F
Humidity 96%
Rainfall 0.03 in
Snow Depth Not available.
UV 0 out of 12
Pollen .50 out of 12
Air Quality Not available.
Flu Activity Not available.
SPECI KUIL 201019Z AUTO 14013G22KT 6SM -RA BR BKN023 BKN030 OVC037 08/07 A2961 RMK AO2 P0001 T00780072

More Conditions Fewer Conditions

Pressure 29.61 in
Visibility 6.0 miles
Clouds Mostly Cloudy 2300 ft
Mostly Cloudy 3000 ft
Overcast 3700 ft
Windchill 40 °F
Dew Point 45 °F
Humidity 96%
Rainfall 0.03 in
Snow Depth Not available.
UV 0 out of 12
Pollen .50 out of 12
Air Quality Not available.
Flu Activity Not available.
SPECI KUIL 201019Z AUTO 14013G22KT 6SM -RA BR BKN023 BKN030 OVC037 08/07 A2961 RMK AO2 P0001 T00780072

More Conditions Fewer Conditions

10-Day Weather Forecast

Almanac

Astronomy

Dec. 20, 2014 Rise Set
Actual Time
Civil Twilight
Nautical Twilight
Astronomical Twilight
Moon
Length of Visible Light
Length of Day
Tomorrow will be .
, % of the Moon is Illuminated

Today's Extremes

State Highs State Lows

Community

WunderPhotos

Upload Photos

1,779,150 photos uploaded!

WunderBlogs® & News

Nearby

Air Quality

  Air Quality AQ Index Pollutant
Not available.

Snow Depth

Station Depth Elevation

Earthquake Activity

City Distance Mag. Time & Date
Minimum magnitude displayed is 2.5.

Coastal Water Temperatures

Place Temperature

Nearby Weather Stations